Wind From: 11-12-2017 04:25 Until: 16:00 warning for: Wind Level: Orange info button

Power and phone distribution networks may be disrupted for relatively long periods., Roofs and chimneys can be damaged. , Tree branches may break. , Vehicles can be deported. , Traffic may be disrupted, particularly on secondary roads in forest areas. Limit your trips. , Limit your speed in highway driving, especially if you drive a vehicle or hitch sensitive to wind. , Do not go for walks in forests or along the coast., In town, be vigilant against possible falling objects., Do not work on roofs and do not touch any electrical line fallen on the ground., Store or secure sensitive objects to wind or likely to be damaged., Always install power generators outside buildings. 


Meteo18 Weather Cam more information Meteo18 Weather Cam


Thunder radar more information blitzortung!


Rain radar more information rain snow radar


Visit our other weather sites:

Template documentation
and downloads

And another site



Weather Underground History page Text

Daily Summary for January 10, 2017 Units:  Both    English   Metric
« Previous Day
Next Day »
Daily Weekly Monthly Yearly Custom
  High: Low: Average:
Temperature: 43.3 °F /  6.3 °C 38.5 °F /  3.6 °C 41.2 °F /  5.1 °C
Dew Point: 42.8 °F /  6.0 °C 37.4 °F /  3.0 °C 39.7 °F /  4.3 °C
Humidity: 98 % 88 % 95 %
Wind Speed: 11 mph /  17.7 km/h - 3.4 mph /  5.5 km/h
Wind Gust: 18 mph /  29.0 km/h - -
Wind:- - West
Pressure: 30.1 in /  1018.2 hPa 29.9 in /  1011.7 hPa -
Precipitation: 0.22 in /  5.6 mm    
Historical Graphs
 
 
Tabular Data for January 10, 2017
Time Temperature Dew Point Pressure Wind Wind Speed Wind Gust Humidity Rainfall Rate (Hourly)
00:02 41.9 °F /  5.5 °C 41.4 °F /  5.2 °C 30.1 in /  1018.2 hPa SW 2 mph /  3.2 km/h 10 mph /  16.1 km/h 98 % 0.02 in /  0.5 mm
00:12 42.1 °F /  5.6 °C 41.5 °F /  5.3 °C 30.1 in /  1017.8 hPa WSW 7 mph /  11.3 km/h 10 mph /  16.1 km/h 98 % 0.02 in /  0.5 mm
00:17 42.1 °F /  5.6 °C 41.5 °F /  5.3 °C 30.1 in /  1017.8 hPa WSW 6 mph /  9.7 km/h 10 mph /  16.1 km/h 98 % 0.03 in /  0.8 mm
00:22 42.1 °F /  5.6 °C 41.5 °F /  5.3 °C 30.1 in /  1017.8 hPa SW 7 mph /  11.3 km/h 10 mph /  16.1 km/h 98 % 0.02 in /  0.5 mm
00:27 42.1 °F /  5.6 °C 41.5 °F /  5.3 °C 30.1 in /  1017.8 hPa SW 7 mph /  11.3 km/h 11 mph /  17.7 km/h 98 % 0.02 in /  0.5 mm
00:32 42.1 °F /  5.6 °C 41.5 °F /  5.3 °C 30.1 in /  1017.5 hPa SW 6 mph /  9.7 km/h 11 mph /  17.7 km/h 98 % 0.02 in /  0.5 mm
00:42 42.1 °F /  5.6 °C 41.5 °F /  5.3 °C 30 in /  1017.2 hPa WSW 8 mph /  12.9 km/h 10 mph /  16.1 km/h 98 % 0.02 in /  0.5 mm
00:47 42.1 °F /  5.6 °C 41.5 °F /  5.3 °C 30 in /  1017.2 hPa SSW 6 mph /  9.7 km/h 10 mph /  16.1 km/h 98 % 0.02 in /  0.5 mm
00:52 42.1 °F /  5.6 °C 41.5 °F /  5.3 °C 30 in /  1016.8 hPa SW 8 mph /  12.9 km/h 10 mph /  16.1 km/h 98 % 0.04 in /  1.0 mm
00:57 42.3 °F /  5.7 °C 41.7 °F /  5.4 °C 30 in /  1016.8 hPa SW 8 mph /  12.9 km/h 10 mph /  16.1 km/h 98 % 0.04 in /  1.0 mm
01:02 42.1 °F /  5.6 °C 41.5 °F /  5.3 °C 30 in /  1016.8 hPa SSW 6 mph /  9.7 km/h 10 mph /  16.1 km/h 98 % 0.03 in /  0.8 mm
01:07 42.1 °F /  5.6 °C 41.5 °F /  5.3 °C 30 in /  1016.5 hPa SSW 7 mph /  11.3 km/h 11 mph /  17.7 km/h 98 % 0.04 in /  1.0 mm
01:12 42.1 °F /  5.6 °C 41.5 °F /  5.3 °C 30 in /  1016.5 hPa SW 8 mph /  12.9 km/h 11 mph /  17.7 km/h 98 % 0.04 in /  1.0 mm
01:17 42.1 °F /  5.6 °C 41.5 °F /  5.3 °C 30 in /  1016.5 hPa SSW 11 mph /  17.7 km/h 13 mph /  20.9 km/h 98 % 0.03 in /  0.8 mm
01:22 42.3 °F /  5.7 °C 41.7 °F /  5.4 °C 30 in /  1016.1 hPa SSW 7 mph /  11.3 km/h 13 mph /  20.9 km/h 98 % 0.03 in /  0.8 mm
01:27 42.3 °F /  5.7 °C 41.7 °F /  5.4 °C 30 in /  1016.1 hPa SW 6 mph /  9.7 km/h 13 mph /  20.9 km/h 98 % 0.04 in /  1.0 mm
01:32 42.3 °F /  5.7 °C 41.7 °F /  5.4 °C 30 in /  1016.1 hPa WSW 7 mph /  11.3 km/h 13 mph /  20.9 km/h 98 % 0.03 in /  0.8 mm
01:37 42.3 °F /  5.7 °C 41.7 °F /  5.4 °C 30 in /  1015.8 hPa SSW 6 mph /  9.7 km/h 13 mph /  20.9 km/h 98 % 0.03 in /  0.8 mm
01:42 42.3 °F /  5.7 °C 41.7 °F /  5.4 °C 30 in /  1015.8 hPa SW 9 mph /  14.5 km/h 12 mph /  19.3 km/h 98 % 0.04 in /  1.0 mm
01:47 42.4 °F /  5.8 °C 41.9 °F /  5.5 °C 30 in /  1015.5 hPa SW 10 mph /  16.1 km/h 14 mph /  22.5 km/h 98 % 0.03 in /  0.8 mm
01:52 42.4 °F /  5.8 °C 41.9 °F /  5.5 °C 30 in /  1015.5 hPa SW 5 mph /  8.0 km/h 14 mph /  22.5 km/h 98 % 0.02 in /  0.5 mm
01:57 42.4 °F /  5.8 °C 41.9 °F /  5.5 °C 30 in /  1015.1 hPa SW 6 mph /  9.7 km/h 14 mph /  22.5 km/h 98 % 0.02 in /  0.5 mm
02:02 42.4 °F /  5.8 °C 41.9 °F /  5.5 °C 30 in /  1015.1 hPa SW 8 mph /  12.9 km/h 13 mph /  20.9 km/h 98 % 0.02 in /  0.5 mm
02:07 42.4 °F /  5.8 °C 41.9 °F /  5.5 °C 30 in /  1015.1 hPa SSW 4 mph /  6.4 km/h 13 mph /  20.9 km/h 98 % 0.02 in /  0.5 mm
02:12 42.4 °F /  5.8 °C 41.9 °F /  5.5 °C 30 in /  1014.8 hPa SW 9 mph /  14.5 km/h 12 mph /  19.3 km/h 98 % 0.02 in /  0.5 mm
02:17 42.6 °F /  5.9 °C 42.1 °F /  5.6 °C 30 in /  1014.8 hPa SSW 6 mph /  9.7 km/h 12 mph /  19.3 km/h 98 % 0.02 in /  0.5 mm
02:22 42.6 °F /  5.9 °C 42.1 °F /  5.6 °C 30 in /  1014.4 hPa SW 6 mph /  9.7 km/h 12 mph /  19.3 km/h 98 % 0.02 in /  0.5 mm
02:27 42.6 °F /  5.9 °C 42.1 °F /  5.6 °C 30 in /  1014.4 hPa SW 8 mph /  12.9 km/h 12 mph /  19.3 km/h 98 % 0.02 in /  0.5 mm
02:32 42.4 °F /  5.8 °C 41.9 °F /  5.5 °C 30 in /  1014.4 hPa SSW 9 mph /  14.5 km/h 12 mph /  19.3 km/h 98 % 0.02 in /  0.5 mm
02:37 42.4 °F /  5.8 °C 41.9 °F /  5.5 °C 30 in /  1014.4 hPa SW 9 mph /  14.5 km/h 11 mph /  17.7 km/h 98 % 0.03 in /  0.8 mm
02:42 42.4 °F /  5.8 °C 41.9 °F /  5.5 °C 29.9 in /  1014.1 hPa SW 7 mph /  11.3 km/h 11 mph /  17.7 km/h 98 % 0.02 in /  0.5 mm
02:47 42.3 °F /  5.7 °C 41.7 °F /  5.4 °C 29.9 in /  1014.1 hPa SW 7 mph /  11.3 km/h 11 mph /  17.7 km/h 98 % 0.02 in /  0.5 mm
02:52 42.3 °F /  5.7 °C 41.7 °F /  5.4 °C 29.9 in /  1013.8 hPa SSW 7 mph /  11.3 km/h 13 mph /  20.9 km/h 98 % 0.03 in /  0.8 mm
02:57 42.3 °F /  5.7 °C 41.7 °F /  5.4 °C 29.9 in /  1013.8 hPa SW 4 mph /  6.4 km/h 13 mph /  20.9 km/h 98 % 0.03 in /  0.8 mm
03:02 42.3 °F /  5.7 °C 41.7 °F /  5.4 °C 29.9 in /  1013.8 hPa SW 5 mph /  8.0 km/h 12 mph /  19.3 km/h 98 % 0.03 in /  0.8 mm
03:07 42.3 °F /  5.7 °C 41.7 °F /  5.4 °C 29.9 in /  1013.8 hPa SW 9 mph /  14.5 km/h 11 mph /  17.7 km/h 98 % 0.04 in /  1.0 mm
03:12 42.3 °F /  5.7 °C 41.7 °F /  5.4 °C 29.9 in /  1013.8 hPa SSW 3 mph /  4.8 km/h 11 mph /  17.7 km/h 98 % 0.05 in /  1.3 mm
03:17 42.4 °F /  5.8 °C 41.9 °F /  5.5 °C 29.9 in /  1013.4 hPa SW 6 mph /  9.7 km/h 11 mph /  17.7 km/h 98 % 0.06 in /  1.5 mm
03:22 42.6 °F /  5.9 °C 42.1 °F /  5.6 °C 29.9 in /  1013.4 hPa SSW 5 mph /  8.0 km/h 11 mph /  17.7 km/h 98 % 0.06 in /  1.5 mm
03:27 42.6 °F /  5.9 °C 42.1 °F /  5.6 °C 29.9 in /  1013.1 hPa SW 7 mph /  11.3 km/h 12 mph /  19.3 km/h 98 % 0.06 in /  1.5 mm
03:32 42.6 °F /  5.9 °C 42.1 °F /  5.6 °C 29.9 in /  1013.1 hPa SSW 5 mph /  8.0 km/h 12 mph /  19.3 km/h 98 % 0.05 in /  1.3 mm
03:37 42.6 °F /  5.9 °C 42.1 °F /  5.6 °C 29.9 in /  1013.1 hPa SSW 4 mph /  6.4 km/h 11 mph /  17.7 km/h 98 % 0.06 in /  1.5 mm
03:42 42.6 °F /  5.9 °C 42.1 °F /  5.6 °C 29.9 in /  1013.1 hPa SW 6 mph /  9.7 km/h 10 mph /  16.1 km/h 98 % 0.06 in /  1.5 mm
03:47 42.6 °F /  5.9 °C 42.1 °F /  5.6 °C 29.9 in /  1012.8 hPa West 5 mph /  8.0 km/h 10 mph /  16.1 km/h 98 % 0.05 in /  1.3 mm
03:52 42.6 °F /  5.9 °C 42.1 °F /  5.6 °C 29.9 in /  1012.8 hPa SW 2 mph /  3.2 km/h 10 mph /  16.1 km/h 98 % 0.05 in /  1.3 mm
03:57 42.8 °F /  6.0 °C 42.3 °F /  5.7 °C 29.9 in /  1012.8 hPa SW 2 mph /  3.2 km/h 10 mph /  16.1 km/h 98 % 0.05 in /  1.3 mm
04:07 42.8 °F /  6.0 °C 42.3 °F /  5.7 °C 29.9 in /  1012.8 hPa SSW 2 mph /  3.2 km/h 7 mph /  11.3 km/h 98 % 0.03 in /  0.8 mm
04:12 43 °F /  6.1 °C 42.4 °F /  5.8 °C 29.9 in /  1012.4 hPa SW 2 mph /  3.2 km/h 7 mph /  11.3 km/h 98 % 0.03 in /  0.8 mm
04:17 43 °F /  6.1 °C 42.4 °F /  5.8 °C 29.9 in /  1012.4 hPa SW 2 mph /  3.2 km/h 7 mph /  11.3 km/h 98 % 0.03 in /  0.8 mm
04:22 43 °F /  6.1 °C 42.4 °F /  5.8 °C 29.9 in /  1012.4 hPa WSW 4 mph /  6.4 km/h 6 mph /  9.7 km/h 98 % 0.03 in /  0.8 mm
04:27 43.2 °F /  6.2 °C 42.6 °F /  5.9 °C 29.9 in /  1012.4 hPa WSW 2 mph /  3.2 km/h 5 mph /  8.0 km/h 98 % 0.02 in /  0.5 mm
04:32 43.2 °F /  6.2 °C 42.6 °F /  5.9 °C 29.9 in /  1012.4 hPa WSW 2 mph /  3.2 km/h 5 mph /  8.0 km/h 98 % 0.02 in /  0.5 mm
04:37 43.2 °F /  6.2 °C 42.6 °F /  5.9 °C 29.9 in /  1012.4 hPa West 3 mph /  4.8 km/h 5 mph /  8.0 km/h 98 % 0.02 in /  0.5 mm
04:47 43.3 °F /  6.3 °C 42.8 °F /  6.0 °C 29.9 in /  1012.4 hPa WSW 4 mph /  6.4 km/h 6 mph /  9.7 km/h 98 % 0.03 in /  0.8 mm
04:52 43.3 °F /  6.3 °C 42.8 °F /  6.0 °C 29.9 in /  1012.8 hPa NNW 6 mph /  9.7 km/h 12 mph /  19.3 km/h 98 % 0.04 in /  1.0 mm
04:57 42.6 °F /  5.9 °C 41.9 °F /  5.5 °C 29.9 in /  1012.8 hPa NNW 6 mph /  9.7 km/h 18 mph /  29.0 km/h 97 % 0.04 in /  1.0 mm
05:02 42.3 °F /  5.7 °C 41.5 °F /  5.3 °C 29.9 in /  1012.8 hPa WNW 3 mph /  4.8 km/h 18 mph /  29.0 km/h 97 % 0.04 in /  1.0 mm
05:12 41.7 °F /  5.4 °C 40.6 °F /  4.8 °C 29.9 in /  1012.4 hPa NW 6 mph /  9.7 km/h 14 mph /  22.5 km/h 96 % 0.03 in /  0.8 mm
05:17 41.5 °F /  5.3 °C 40.5 °F /  4.7 °C 29.9 in /  1012.4 hPa NNW 4 mph /  6.4 km/h 14 mph /  22.5 km/h 96 % 0.03 in /  0.8 mm
05:22 41.5 °F /  5.3 °C 40.5 °F /  4.7 °C 29.9 in /  1012.4 hPa NW 2 mph /  3.2 km/h 11 mph /  17.7 km/h 96 % 0.03 in /  0.8 mm
05:27 41.4 °F /  5.2 °C 40.3 °F /  4.6 °C 29.9 in /  1012.1 hPa NNW 4 mph /  6.4 km/h 8 mph /  12.9 km/h 96 % 0.03 in /  0.8 mm
05:32 41.4 °F /  5.2 °C 40.3 °F /  4.6 °C 29.9 in /  1012.1 hPa North 2 mph /  3.2 km/h 8 mph /  12.9 km/h 96 % 0.03 in /  0.8 mm
05:37 41.2 °F /  5.1 °C 40.1 °F /  4.5 °C 29.9 in /  1012.1 hPa Calm   6 mph /  9.7 km/h 96 % 0.02 in /  0.5 mm
05:42 41.2 °F /  5.1 °C 40.1 °F /  4.5 °C 29.9 in /  1012.1 hPa NNW 1 mph /  1.6 km/h 5 mph /  8.0 km/h 96 % 0.02 in /  0.5 mm
05:47 41.2 °F /  5.1 °C 40.1 °F /  4.5 °C 29.9 in /  1011.7 hPa Calm   3 mph /  4.8 km/h 96 % 0.02 in /  0.5 mm
05:52 41 °F /  5.0 °C 39.9 °F /  4.4 °C 29.9 in /  1011.7 hPa NNW 1 mph /  1.6 km/h 3 mph /  4.8 km/h 96 % 0 in /  0.0 mm
05:57 41 °F /  5.0 °C 39.9 °F /  4.4 °C 29.9 in /  1011.7 hPa NNW 1 mph /  1.6 km/h 3 mph /  4.8 km/h 96 % 0 in /  0.0 mm
06:02 40.8 °F /  4.9 °C 39.7 °F /  4.3 °C 29.9 in /  1012.1 hPa North 3 mph /  4.8 km/h 3 mph /  4.8 km/h 96 % 0 in /  0.0 mm
06:07 40.8 °F /  4.9 °C 39.7 °F /  4.3 °C 29.9 in /  1012.1 hPa NNW 1 mph /  1.6 km/h 5 mph /  8.0 km/h 96 % 0 in /  0.0 mm
06:12 40.6 °F /  4.8 °C 39.6 °F /  4.2 °C 29.9 in /  1012.1 hPa NNE 1 mph /  1.6 km/h 5 mph /  8.0 km/h 96 % 0 in /  0.0 mm
06:17 40.6 °F /  4.8 °C 39.6 °F /  4.2 °C 29.9 in /  1012.1 hPa North 1 mph /  1.6 km/h 5 mph /  8.0 km/h 96 % 0 in /  0.0 mm
06:22 40.6 °F /  4.8 °C 39.6 °F /  4.2 °C 29.9 in /  1012.1 hPa NW 2 mph /  3.2 km/h 5 mph /  8.0 km/h 96 % 0 in /  0.0 mm
06:27 40.5 °F /  4.7 °C 39.4 °F /  4.1 °C 29.9 in /  1012.1 hPa NNW 2 mph /  3.2 km/h 5 mph /  8.0 km/h 96 % 0 in /  0.0 mm
06:32 40.3 °F /  4.6 °C 39.2 °F /  4.0 °C 29.9 in /  1012.1 hPa NNW 2 mph /  3.2 km/h 5 mph /  8.0 km/h 96 % 0 in /  0.0 mm
06:37 39.9 °F /  4.4 °C 38.8 °F /  3.8 °C 29.9 in /  1012.1 hPa North 1 mph /  1.6 km/h 5 mph /  8.0 km/h 96 % 0 in /  0.0 mm
06:42 39.9 °F /  4.4 °C 38.8 °F /  3.8 °C 29.9 in /  1012.1 hPa North 1 mph /  1.6 km/h 5 mph /  8.0 km/h 96 % 0 in /  0.0 mm
06:47 39.9 °F /  4.4 °C 38.8 °F /  3.8 °C 29.9 in /  1012.1 hPa NW 1 mph /  1.6 km/h 3 mph /  4.8 km/h 96 % 0 in /  0.0 mm
06:52 39.7 °F /  4.3 °C 38.7 °F /  3.7 °C 29.9 in /  1012.4 hPa NNW 2 mph /  3.2 km/h 2 mph /  3.2 km/h 96 % 0 in /  0.0 mm
06:57 39.6 °F /  4.2 °C 38.5 °F /  3.6 °C 29.9 in /  1012.4 hPa North 1 mph /  1.6 km/h 2 mph /  3.2 km/h 96 % 0 in /  0.0 mm
07:02 39.6 °F /  4.2 °C 38.5 °F /  3.6 °C 29.9 in /  1012.4 hPa NNW 1 mph /  1.6 km/h 2 mph /  3.2 km/h 96 % 0 in /  0.0 mm
07:07 39.6 °F /  4.2 °C 38.5 °F /  3.6 °C 29.9 in /  1012.4 hPa Calm   3 mph /  4.8 km/h 96 % 0 in /  0.0 mm
07:12 39.6 °F /  4.2 °C 38.5 °F /  3.6 °C 29.9 in /  1012.4 hPa NW 1 mph /  1.6 km/h 3 mph /  4.8 km/h 96 % 0 in /  0.0 mm
07:17 39.6 °F /  4.2 °C 38.5 °F /  3.6 °C 29.9 in /  1012.8 hPa NW 1 mph /  1.6 km/h 2 mph /  3.2 km/h 96 % 0 in /  0.0 mm
07:22 39.6 °F /  4.2 °C 38.5 °F /  3.6 °C 29.9 in /  1012.8 hPa NW 1 mph /  1.6 km/h 4 mph /  6.4 km/h 96 % 0 in /  0.0 mm
07:27 39.6 °F /  4.2 °C 38.5 °F /  3.6 °C 29.9 in /  1012.8 hPa Calm   4 mph /  6.4 km/h 96 % 0 in /  0.0 mm
07:32 39.4 °F /  4.1 °C 38.3 °F /  3.5 °C 29.9 in /  1012.8 hPa NNW 1 mph /  1.6 km/h 4 mph /  6.4 km/h 96 % 0 in /  0.0 mm
07:37 39.4 °F /  4.1 °C 38.7 °F /  3.7 °C 29.9 in /  1012.4 hPa WNW 1 mph /  1.6 km/h 4 mph /  6.4 km/h 97 % 0 in /  0.0 mm
07:42 39.2 °F /  4.0 °C 38.5 °F /  3.6 °C 29.9 in /  1012.8 hPa NW 2 mph /  3.2 km/h 4 mph /  6.4 km/h 97 % 0 in /  0.0 mm
07:47 39.2 °F /  4.0 °C 38.5 °F /  3.6 °C 29.9 in /  1012.8 hPa NW 2 mph /  3.2 km/h 4 mph /  6.4 km/h 97 % 0 in /  0.0 mm
07:52 39.4 °F /  4.1 °C 38.7 °F /  3.7 °C 29.9 in /  1012.8 hPa NW 2 mph /  3.2 km/h 4 mph /  6.4 km/h 97 % 0 in /  0.0 mm
07:57 39.2 °F /  4.0 °C 38.5 °F /  3.6 °C 29.9 in /  1012.8 hPa WNW 3 mph /  4.8 km/h 4 mph /  6.4 km/h 97 % 0 in /  0.0 mm
08:02 39.2 °F /  4.0 °C 38.5 °F /  3.6 °C 29.9 in /  1012.8 hPa WNW 1 mph /  1.6 km/h 4 mph /  6.4 km/h 97 % 0 in /  0.0 mm
08:07 39.2 °F /  4.0 °C 38.5 °F /  3.6 °C 29.9 in /  1012.8 hPa WNW 3 mph /  4.8 km/h 6 mph /  9.7 km/h 97 % 0 in /  0.0 mm
08:12 39.4 °F /  4.1 °C 38.7 °F /  3.7 °C 29.9 in /  1012.4 hPa NW 3 mph /  4.8 km/h 6 mph /  9.7 km/h 97 % 0 in /  0.0 mm
08:17 39.4 °F /  4.1 °C 38.7 °F /  3.7 °C 29.9 in /  1012.8 hPa WNW 3 mph /  4.8 km/h 6 mph /  9.7 km/h 97 % 0 in /  0.0 mm
08:22 39.4 °F /  4.1 °C 38.7 °F /  3.7 °C 29.9 in /  1012.8 hPa WNW 5 mph /  8.0 km/h 7 mph /  11.3 km/h 97 % 0 in /  0.0 mm
08:27 39.4 °F /  4.1 °C 38.7 °F /  3.7 °C 29.9 in /  1012.4 hPa NW 2 mph /  3.2 km/h 7 mph /  11.3 km/h 97 % 0 in /  0.0 mm
08:32 39.6 °F /  4.2 °C 38.8 °F /  3.8 °C 29.9 in /  1012.8 hPa WNW 2 mph /  3.2 km/h 7 mph /  11.3 km/h 97 % 0 in /  0.0 mm
08:37 39.6 °F /  4.2 °C 38.8 °F /  3.8 °C 29.9 in /  1012.8 hPa WNW 1 mph /  1.6 km/h 8 mph /  12.9 km/h 97 % 0 in /  0.0 mm
08:42 39.6 °F /  4.2 °C 38.5 °F /  3.6 °C 29.9 in /  1012.8 hPa WNW 1 mph /  1.6 km/h 8 mph /  12.9 km/h 96 % 0 in /  0.0 mm
08:52 39.4 °F /  4.1 °C 38.3 °F /  3.5 °C 29.9 in /  1012.8 hPa Calm   4 mph /  6.4 km/h 96 % 0 in /  0.0 mm
08:57 39.4 °F /  4.1 °C 38.3 °F /  3.5 °C 29.9 in /  1012.8 hPa Calm   4 mph /  6.4 km/h 96 % 0 in /  0.0 mm
09:02 39 °F /  3.9 °C 37.9 °F /  3.3 °C 29.9 in /  1012.8 hPa West 1 mph /  1.6 km/h 4 mph /  6.4 km/h 96 % 0 in /  0.0 mm
09:07 39 °F /  3.9 °C 37.9 °F /  3.3 °C 29.9 in /  1012.4 hPa Calm   2 mph /  3.2 km/h 96 % 0 in /  0.0 mm
09:12 39.2 °F /  4.0 °C 38.1 °F /  3.4 °C 29.9 in /  1012.8 hPa WNW 1 mph /  1.6 km/h 2 mph /  3.2 km/h 96 % 0 in /  0.0 mm
09:17 39.6 °F /  4.2 °C 38.8 °F /  3.8 °C 29.9 in /  1012.8 hPa WNW 1 mph /  1.6 km/h 3 mph /  4.8 km/h 97 % 0 in /  0.0 mm
09:22 39.9 °F /  4.4 °C 39.2 °F /  4.0 °C 29.9 in /  1012.8 hPa WNW 2 mph /  3.2 km/h 3 mph /  4.8 km/h 97 % 0 in /  0.0 mm
09:27 40.3 °F /  4.6 °C 39.2 °F /  4.0 °C 29.9 in /  1012.8 hPa NW 3 mph /  4.8 km/h 7 mph /  11.3 km/h 96 % 0 in /  0.0 mm
09:32 40.5 °F /  4.7 °C 39.4 °F /  4.1 °C 29.9 in /  1012.8 hPa NW 2 mph /  3.2 km/h 7 mph /  11.3 km/h 96 % 0 in /  0.0 mm
09:37 40.6 °F /  4.8 °C 39.6 °F /  4.2 °C 29.9 in /  1012.8 hPa WNW 4 mph /  6.4 km/h 7 mph /  11.3 km/h 96 % 0 in /  0.0 mm
09:42 41 °F /  5.0 °C 39.7 °F /  4.3 °C 29.9 in /  1012.8 hPa West 1 mph /  1.6 km/h 9 mph /  14.5 km/h 95 % 0 in /  0.0 mm
09:52 41.2 °F /  5.1 °C 39.9 °F /  4.4 °C 29.9 in /  1012.8 hPa WNW 2 mph /  3.2 km/h 9 mph /  14.5 km/h 95 % 0 in /  0.0 mm
09:57 41.2 °F /  5.1 °C 39.9 °F /  4.4 °C 29.9 in /  1012.8 hPa WNW 4 mph /  6.4 km/h 9 mph /  14.5 km/h 95 % 0 in /  0.0 mm
10:02 41 °F /  5.0 °C 39.7 °F /  4.3 °C 29.9 in /  1012.8 hPa WNW 4 mph /  6.4 km/h 9 mph /  14.5 km/h 95 % 0 in /  0.0 mm
10:07 40.8 °F /  4.9 °C 39.6 °F /  4.2 °C 29.9 in /  1012.8 hPa WNW 2 mph /  3.2 km/h 7 mph /  11.3 km/h 95 % 0 in /  0.0 mm
10:12 40.8 °F /  4.9 °C 39.6 °F /  4.2 °C 29.9 in /  1012.8 hPa West 2 mph /  3.2 km/h 7 mph /  11.3 km/h 95 % 0 in /  0.0 mm
10:17 41 °F /  5.0 °C 39.7 °F /  4.3 °C 29.9 in /  1013.1 hPa WNW 1 mph /  1.6 km/h 7 mph /  11.3 km/h 95 % 0 in /  0.0 mm
10:22 41.4 °F /  5.2 °C 40.1 °F /  4.5 °C 29.9 in /  1013.1 hPa WNW 5 mph /  8.0 km/h 7 mph /  11.3 km/h 95 % 0 in /  0.0 mm
10:32 42.1 °F /  5.6 °C 40.5 °F /  4.7 °C 29.9 in /  1013.4 hPa NW 4 mph /  6.4 km/h 8 mph /  12.9 km/h 94 % 0 in /  0.0 mm
10:37 42.3 °F /  5.7 °C 40.6 °F /  4.8 °C 29.9 in /  1013.4 hPa WNW 6 mph /  9.7 km/h 9 mph /  14.5 km/h 94 % 0 in /  0.0 mm
10:42 42.3 °F /  5.7 °C 40.5 °F /  4.7 °C 29.9 in /  1013.4 hPa NNW 6 mph /  9.7 km/h 9 mph /  14.5 km/h 93 % 0 in /  0.0 mm
10:47 42.1 °F /  5.6 °C 40.3 °F /  4.6 °C 29.9 in /  1013.8 hPa NW 4 mph /  6.4 km/h 12 mph /  19.3 km/h 93 % 0 in /  0.0 mm
10:52 41.9 °F /  5.5 °C 40.3 °F /  4.6 °C 29.9 in /  1013.8 hPa NW 4 mph /  6.4 km/h 12 mph /  19.3 km/h 94 % 0 in /  0.0 mm
10:57 41.9 °F /  5.5 °C 40.3 °F /  4.6 °C 29.9 in /  1013.4 hPa WNW 3 mph /  4.8 km/h 11 mph /  17.7 km/h 94 % 0 in /  0.0 mm
11:02 41.9 °F /  5.5 °C 40.3 °F /  4.6 °C 29.9 in /  1013.4 hPa WNW 2 mph /  3.2 km/h 10 mph /  16.1 km/h 94 % 0 in /  0.0 mm
11:07 41.9 °F /  5.5 °C 40.3 °F /  4.6 °C 29.9 in /  1013.4 hPa West 3 mph /  4.8 km/h 8 mph /  12.9 km/h 94 % 0 in /  0.0 mm
11:17 41.7 °F /  5.4 °C 40.1 °F /  4.5 °C 29.9 in /  1013.4 hPa NW 3 mph /  4.8 km/h 9 mph /  14.5 km/h 94 % 0 in /  0.0 mm
11:22 41.7 °F /  5.4 °C 40.1 °F /  4.5 °C 29.9 in /  1013.8 hPa NNW 3 mph /  4.8 km/h 9 mph /  14.5 km/h 94 % 0 in /  0.0 mm
11:27 41.7 °F /  5.4 °C 40.1 °F /  4.5 °C 29.9 in /  1013.8 hPa WNW 9 mph /  14.5 km/h 11 mph /  17.7 km/h 94 % 0 in /  0.0 mm
11:32 41.5 °F /  5.3 °C 39.9 °F /  4.4 °C 29.9 in /  1013.8 hPa WNW 6 mph /  9.7 km/h 12 mph /  19.3 km/h 94 % 0.01 in /  0.3 mm
11:37 41.5 °F /  5.3 °C 39.9 °F /  4.4 °C 29.9 in /  1013.8 hPa WNW 1 mph /  1.6 km/h 12 mph /  19.3 km/h 94 % 0.01 in /  0.3 mm
11:47 41.5 °F /  5.3 °C 39.9 °F /  4.4 °C 29.9 in /  1013.4 hPa NW 5 mph /  8.0 km/h 8 mph /  12.9 km/h 94 % 0.01 in /  0.3 mm
11:52 41.5 °F /  5.3 °C 39.9 °F /  4.4 °C 29.9 in /  1013.4 hPa WNW 5 mph /  8.0 km/h 9 mph /  14.5 km/h 94 % 0.01 in /  0.3 mm
12:02 41.7 °F /  5.4 °C 40.1 °F /  4.5 °C 29.9 in /  1013.4 hPa NW 3 mph /  4.8 km/h 8 mph /  12.9 km/h 94 % 0.01 in /  0.3 mm
12:07 41.9 °F /  5.5 °C 40.3 °F /  4.6 °C 29.9 in /  1013.4 hPa WNW 6 mph /  9.7 km/h 8 mph /  12.9 km/h 94 % 0.01 in /  0.3 mm
12:17 42.3 °F /  5.7 °C 40.5 °F /  4.7 °C 29.9 in /  1013.4 hPa WNW 8 mph /  12.9 km/h 8 mph /  12.9 km/h 93 % 0.01 in /  0.3 mm
12:22 42.3 °F /  5.7 °C 40.1 °F /  4.5 °C 29.9 in /  1013.4 hPa WNW 4 mph /  6.4 km/h 12 mph /  19.3 km/h 92 % 0.01 in /  0.3 mm
12:27 42.4 °F /  5.8 °C 40.3 °F /  4.6 °C 29.9 in /  1013.1 hPa WNW 1 mph /  1.6 km/h 12 mph /  19.3 km/h 92 % 0.01 in /  0.3 mm
12:37 42.4 °F /  5.8 °C 39.7 °F /  4.3 °C 29.9 in /  1013.1 hPa NW 5 mph /  8.0 km/h 10 mph /  16.1 km/h 90 % 0 in /  0.0 mm
12:42 42.4 °F /  5.8 °C 39.9 °F /  4.4 °C 29.9 in /  1012.8 hPa West 7 mph /  11.3 km/h 10 mph /  16.1 km/h 91 % 0 in /  0.0 mm
12:47 42.6 °F /  5.9 °C 39.9 °F /  4.4 °C 29.9 in /  1012.8 hPa WNW 7 mph /  11.3 km/h 12 mph /  19.3 km/h 90 % 0 in /  0.0 mm
12:52 42.6 °F /  5.9 °C 39.9 °F /  4.4 °C 29.9 in /  1012.8 hPa WNW 6 mph /  9.7 km/h 12 mph /  19.3 km/h 90 % 0 in /  0.0 mm
12:57 42.6 °F /  5.9 °C 39.9 °F /  4.4 °C 29.9 in /  1012.8 hPa WNW 4 mph /  6.4 km/h 12 mph /  19.3 km/h 90 % 0 in /  0.0 mm
13:02 42.6 °F /  5.9 °C 39.9 °F /  4.4 °C 29.9 in /  1012.8 hPa NW 4 mph /  6.4 km/h 11 mph /  17.7 km/h 90 % 0 in /  0.0 mm
13:07 42.6 °F /  5.9 °C 39.9 °F /  4.4 °C 29.9 in /  1012.8 hPa WSW 1 mph /  1.6 km/h 11 mph /  17.7 km/h 90 % 0 in /  0.0 mm
13:17 42.8 °F /  6.0 °C 39.7 °F /  4.3 °C 29.9 in /  1012.8 hPa WNW 3 mph /  4.8 km/h 12 mph /  19.3 km/h 89 % 0 in /  0.0 mm
13:22 42.4 °F /  5.8 °C 39.4 °F /  4.1 °C 29.9 in /  1012.8 hPa NNE 7 mph /  11.3 km/h 12 mph /  19.3 km/h 89 % 0 in /  0.0 mm
13:27 42.3 °F /  5.7 °C 39.6 °F /  4.2 °C 29.9 in /  1012.8 hPa NW 8 mph /  12.9 km/h 12 mph /  19.3 km/h 90 % 0.01 in /  0.3 mm
13:32 41 °F /  5.0 °C 38.3 °F /  3.5 °C 29.9 in /  1012.8 hPa WNW 8 mph /  12.9 km/h 15 mph /  24.1 km/h 90 % 0.02 in /  0.5 mm
13:37 40.5 °F /  4.7 °C 38.1 °F /  3.4 °C 29.9 in /  1012.8 hPa NW 2 mph /  3.2 km/h 15 mph /  24.1 km/h 91 % 0.03 in /  0.8 mm
13:42 40.6 °F /  4.8 °C 38.5 °F /  3.6 °C 29.9 in /  1012.8 hPa NW 4 mph /  6.4 km/h 15 mph /  24.1 km/h 92 % 0.03 in /  0.8 mm
13:52 41.4 °F /  5.2 °C 39.7 °F /  4.3 °C 29.9 in /  1012.8 hPa NNW 7 mph /  11.3 km/h 8 mph /  12.9 km/h 94 % 0.03 in /  0.8 mm
14:02 41.7 °F /  5.4 °C 39.6 °F /  4.2 °C 29.9 in /  1012.8 hPa NW 5 mph /  8.0 km/h 13 mph /  20.9 km/h 92 % 0.03 in /  0.8 mm
14:07 41.9 °F /  5.5 °C 39.7 °F /  4.3 °C 29.9 in /  1012.8 hPa NNW 3 mph /  4.8 km/h 14 mph /  22.5 km/h 92 % 0.03 in /  0.8 mm
14:12 41.9 °F /  5.5 °C 39.7 °F /  4.3 °C 29.9 in /  1012.8 hPa North 1 mph /  1.6 km/h 14 mph /  22.5 km/h 92 % 0.03 in /  0.8 mm
14:17 41.9 °F /  5.5 °C 39.7 °F /  4.3 °C 29.9 in /  1012.8 hPa NW 8 mph /  12.9 km/h 14 mph /  22.5 km/h 92 % 0.03 in /  0.8 mm
14:22 41.9 °F /  5.5 °C 39.7 °F /  4.3 °C 29.9 in /  1012.8 hPa NW 3 mph /  4.8 km/h 16 mph /  25.7 km/h 92 % 0.03 in /  0.8 mm
14:27 41.9 °F /  5.5 °C 39.7 °F /  4.3 °C 29.9 in /  1012.8 hPa WNW 7 mph /  11.3 km/h 16 mph /  25.7 km/h 92 % 0.02 in /  0.5 mm
14:32 41.9 °F /  5.5 °C 39.7 °F /  4.3 °C 29.9 in /  1012.8 hPa WNW 5 mph /  8.0 km/h 16 mph /  25.7 km/h 92 % 0.01 in /  0.3 mm
14:37 42.1 °F /  5.6 °C 39.9 °F /  4.4 °C 29.9 in /  1012.8 hPa WNW 5 mph /  8.0 km/h 11 mph /  17.7 km/h 92 % 0 in /  0.0 mm
14:42 42.3 °F /  5.7 °C 39.7 °F /  4.3 °C 29.9 in /  1012.8 hPa WNW 4 mph /  6.4 km/h 13 mph /  20.9 km/h 91 % 0 in /  0.0 mm
14:47 42.3 °F /  5.7 °C 39.7 °F /  4.3 °C 29.9 in /  1012.8 hPa WNW 2 mph /  3.2 km/h 13 mph /  20.9 km/h 91 % 0 in /  0.0 mm
14:52 42.3 °F /  5.7 °C 39.6 °F /  4.2 °C 29.9 in /  1012.8 hPa WNW 4 mph /  6.4 km/h 13 mph /  20.9 km/h 90 % 0 in /  0.0 mm
14:57 42.3 °F /  5.7 °C 39.6 °F /  4.2 °C 29.9 in /  1012.8 hPa NNW 5 mph /  8.0 km/h 11 mph /  17.7 km/h 90 % 0 in /  0.0 mm
15:02 42.4 °F /  5.8 °C 39.4 °F /  4.1 °C 29.9 in /  1012.8 hPa NNW 6 mph /  9.7 km/h 12 mph /  19.3 km/h 89 % 0 in /  0.0 mm
15:07 42.4 °F /  5.8 °C 39.4 °F /  4.1 °C 29.9 in /  1012.8 hPa WNW 5 mph /  8.0 km/h 12 mph /  19.3 km/h 89 % 0 in /  0.0 mm
15:12 42.4 °F /  5.8 °C 39.4 °F /  4.1 °C 29.9 in /  1012.8 hPa NNW 2 mph /  3.2 km/h 12 mph /  19.3 km/h 89 % 0 in /  0.0 mm
15:17 42.6 °F /  5.9 °C 39.6 °F /  4.2 °C 29.9 in /  1013.1 hPa NNW 6 mph /  9.7 km/h 11 mph /  17.7 km/h 89 % 0 in /  0.0 mm
15:22 42.8 °F /  6.0 °C 39.6 °F /  4.2 °C 29.9 in /  1013.1 hPa North 3 mph /  4.8 km/h 11 mph /  17.7 km/h 88 % 0 in /  0.0 mm
15:27 43 °F /  6.1 °C 39.7 °F /  4.3 °C 29.9 in /  1013.1 hPa NW 9 mph /  14.5 km/h 11 mph /  17.7 km/h 88 % 0 in /  0.0 mm
15:32 43.2 °F /  6.2 °C 39.9 °F /  4.4 °C 29.9 in /  1013.1 hPa NNW 7 mph /  11.3 km/h 12 mph /  19.3 km/h 88 % 0 in /  0.0 mm
15:37 43 °F /  6.1 °C 39.7 °F /  4.3 °C 29.9 in /  1013.1 hPa NW 4 mph /  6.4 km/h 12 mph /  19.3 km/h 88 % 0 in /  0.0 mm
15:42 42.6 °F /  5.9 °C 39.4 °F /  4.1 °C 29.9 in /  1013.1 hPa NNW 5 mph /  8.0 km/h 12 mph /  19.3 km/h 88 % 0 in /  0.0 mm
15:47 42.6 °F /  5.9 °C 39.4 °F /  4.1 °C 29.9 in /  1013.1 hPa NNW 3 mph /  4.8 km/h 11 mph /  17.7 km/h 88 % 0 in /  0.0 mm
15:52 42.6 °F /  5.9 °C 39.4 °F /  4.1 °C 29.9 in /  1013.1 hPa NW 4 mph /  6.4 km/h 13 mph /  20.9 km/h 88 % 0 in /  0.0 mm
15:57 43 °F /  6.1 °C 39.9 °F /  4.4 °C 29.9 in /  1013.1 hPa NNW 5 mph /  8.0 km/h 13 mph /  20.9 km/h 89 % 0 in /  0.0 mm
16:02 43 °F /  6.1 °C 39.7 °F /  4.3 °C 29.9 in /  1013.4 hPa WNW 2 mph /  3.2 km/h 12 mph /  19.3 km/h 88 % 0 in /  0.0 mm
16:07 43.2 °F /  6.2 °C 39.9 °F /  4.4 °C 29.9 in /  1013.4 hPa NW 4 mph /  6.4 km/h 12 mph /  19.3 km/h 88 % 0 in /  0.0 mm
16:12 43.2 °F /  6.2 °C 39.9 °F /  4.4 °C 29.9 in /  1013.4 hPa NW 8 mph /  12.9 km/h 12 mph /  19.3 km/h 88 % 0 in /  0.0 mm
16:17 43.2 °F /  6.2 °C 39.9 °F /  4.4 °C 29.9 in /  1013.4 hPa WNW 5 mph /  8.0 km/h 11 mph /  17.7 km/h 88 % 0 in /  0.0 mm
16:22 43.2 °F /  6.2 °C 39.9 °F /  4.4 °C 29.9 in /  1013.4 hPa NW 3 mph /  4.8 km/h 11 mph /  17.7 km/h 88 % 0 in /  0.0 mm
16:27 43 °F /  6.1 °C 39.7 °F /  4.3 °C 29.9 in /  1013.4 hPa NW 3 mph /  4.8 km/h 11 mph /  17.7 km/h 88 % 0 in /  0.0 mm
16:32 43 °F /  6.1 °C 39.7 °F /  4.3 °C 29.9 in /  1013.8 hPa WNW 1 mph /  1.6 km/h 11 mph /  17.7 km/h 88 % 0 in /  0.0 mm
16:37 43 °F /  6.1 °C 39.7 °F /  4.3 °C 29.9 in /  1013.8 hPa North 5 mph /  8.0 km/h 8 mph /  12.9 km/h 88 % 0 in /  0.0 mm
16:42 42.6 °F /  5.9 °C 39.4 °F /  4.1 °C 29.9 in /  1013.8 hPa NW 5 mph /  8.0 km/h 8 mph /  12.9 km/h 88 % 0 in /  0.0 mm
16:52 42.3 °F /  5.7 °C 39.2 °F /  4.0 °C 29.9 in /  1014.1 hPa North 5 mph /  8.0 km/h 6 mph /  9.7 km/h 89 % 0 in /  0.0 mm
17:02 41.9 °F /  5.5 °C 38.8 °F /  3.8 °C 30 in /  1014.4 hPa NW 2 mph /  3.2 km/h 7 mph /  11.3 km/h 89 % 0 in /  0.0 mm
17:07 41.7 °F /  5.4 °C 39 °F /  3.9 °C 30 in /  1014.4 hPa NW 1 mph /  1.6 km/h 7 mph /  11.3 km/h 90 % 0 in /  0.0 mm
17:12 41.5 °F /  5.3 °C 38.8 °F /  3.8 °C 30 in /  1014.4 hPa Calm   5 mph /  8.0 km/h 90 % 0 in /  0.0 mm
17:52 40.6 °F /  4.8 °C 38.3 °F /  3.5 °C 30 in /  1015.1 hPa Calm   3 mph /  4.8 km/h 91 % 0 in /  0.0 mm
18:02 40.5 °F /  4.7 °C 38.1 °F /  3.4 °C 30 in /  1015.1 hPa WNW 4 mph /  6.4 km/h 4 mph /  6.4 km/h 91 % 0 in /  0.0 mm
18:17 40.5 °F /  4.7 °C 38.3 °F /  3.5 °C 30 in /  1015.5 hPa WNW 2 mph /  3.2 km/h 4 mph /  6.4 km/h 92 % 0 in /  0.0 mm
18:27 40.5 °F /  4.7 °C 38.3 °F /  3.5 °C 30 in /  1015.5 hPa West 2 mph /  3.2 km/h 4 mph /  6.4 km/h 92 % 0 in /  0.0 mm
18:32 40.5 °F /  4.7 °C 38.3 °F /  3.5 °C 30 in /  1015.5 hPa WNW 3 mph /  4.8 km/h 4 mph /  6.4 km/h 92 % 0 in /  0.0 mm
18:42 40.3 °F /  4.6 °C 38.1 °F /  3.4 °C 30 in /  1015.5 hPa West 1 mph /  1.6 km/h 4 mph /  6.4 km/h 92 % 0 in /  0.0 mm
18:52 39.9 °F /  4.4 °C 37.8 °F /  3.2 °C 30 in /  1015.5 hPa WNW 3 mph /  4.8 km/h 4 mph /  6.4 km/h 92 % 0 in /  0.0 mm
19:02 39.9 °F /  4.4 °C 37.8 °F /  3.2 °C 30 in /  1015.5 hPa WNW 4 mph /  6.4 km/h 5 mph /  8.0 km/h 92 % 0 in /  0.0 mm
19:12 39.7 °F /  4.3 °C 37.9 °F /  3.3 °C 30 in /  1015.8 hPa WNW 4 mph /  6.4 km/h 6 mph /  9.7 km/h 93 % 0 in /  0.0 mm
19:22 39.7 °F /  4.3 °C 38.1 °F /  3.4 °C 30 in /  1015.8 hPa WNW 5 mph /  8.0 km/h 5 mph /  8.0 km/h 94 % 0 in /  0.0 mm
19:27 39.9 °F /  4.4 °C 38.1 °F /  3.4 °C 30 in /  1015.8 hPa WNW 2 mph /  3.2 km/h 6 mph /  9.7 km/h 93 % 0 in /  0.0 mm
19:32 39.9 °F /  4.4 °C 38.1 °F /  3.4 °C 30 in /  1015.8 hPa WNW 1 mph /  1.6 km/h 6 mph /  9.7 km/h 93 % 0 in /  0.0 mm
19:42 39.7 °F /  4.3 °C 38.1 °F /  3.4 °C 30 in /  1015.8 hPa WNW 3 mph /  4.8 km/h 3 mph /  4.8 km/h 94 % 0 in /  0.0 mm
19:47 39.7 °F /  4.3 °C 38.1 °F /  3.4 °C 30 in /  1015.8 hPa NW 1 mph /  1.6 km/h 3 mph /  4.8 km/h 94 % 0 in /  0.0 mm
19:57 39.7 °F /  4.3 °C 38.1 °F /  3.4 °C 30 in /  1015.8 hPa WNW 2 mph /  3.2 km/h 3 mph /  4.8 km/h 94 % 0 in /  0.0 mm
20:02 39.6 °F /  4.2 °C 37.9 °F /  3.3 °C 30 in /  1016.1 hPa WNW 1 mph /  1.6 km/h 3 mph /  4.8 km/h 94 % 0 in /  0.0 mm
20:07 39.6 °F /  4.2 °C 37.9 °F /  3.3 °C 30 in /  1016.1 hPa Calm   3 mph /  4.8 km/h 94 % 0 in /  0.0 mm
20:17 39.6 °F /  4.2 °C 37.9 °F /  3.3 °C 30 in /  1016.1 hPa WNW 2 mph /  3.2 km/h 3 mph /  4.8 km/h 94 % 0 in /  0.0 mm
20:27 39.7 °F /  4.3 °C 38.1 °F /  3.4 °C 30 in /  1016.5 hPa West 1 mph /  1.6 km/h 4 mph /  6.4 km/h 94 % 0 in /  0.0 mm
20:37 39.9 °F /  4.4 °C 38.3 °F /  3.5 °C 30 in /  1016.5 hPa WNW 1 mph /  1.6 km/h 4 mph /  6.4 km/h 94 % 0 in /  0.0 mm
20:42 39.9 °F /  4.4 °C 38.3 °F /  3.5 °C 30 in /  1016.5 hPa WNW 2 mph /  3.2 km/h 3 mph /  4.8 km/h 94 % 0 in /  0.0 mm
20:47 39.9 °F /  4.4 °C 38.3 °F /  3.5 °C 30 in /  1016.5 hPa West 1 mph /  1.6 km/h 3 mph /  4.8 km/h 94 % 0 in /  0.0 mm
20:52 39.9 °F /  4.4 °C 38.3 °F /  3.5 °C 30 in /  1016.5 hPa Calm   3 mph /  4.8 km/h 94 % 0 in /  0.0 mm
20:57 39.9 °F /  4.4 °C 38.7 °F /  3.7 °C 30 in /  1016.5 hPa Calm   3 mph /  4.8 km/h 95 % 0 in /  0.0 mm
21:02 40.1 °F /  4.5 °C 38.8 °F /  3.8 °C 30 in /  1016.5 hPa West 1 mph /  1.6 km/h 2 mph /  3.2 km/h 95 % 0 in /  0.0 mm
21:07 40.3 °F /  4.6 °C 38.7 °F /  3.7 °C 30 in /  1016.5 hPa West 1 mph /  1.6 km/h 2 mph /  3.2 km/h 94 % 0 in /  0.0 mm
21:17 40.5 °F /  4.7 °C 39.2 °F /  4.0 °C 30 in /  1016.8 hPa NW 2 mph /  3.2 km/h 3 mph /  4.8 km/h 95 % 0 in /  0.0 mm
21:22 40.5 °F /  4.7 °C 39.2 °F /  4.0 °C 30 in /  1016.8 hPa West 2 mph /  3.2 km/h 3 mph /  4.8 km/h 95 % 0 in /  0.0 mm
21:27 40.6 °F /  4.8 °C 39.4 °F /  4.1 °C 30 in /  1016.8 hPa WSW 1 mph /  1.6 km/h 3 mph /  4.8 km/h 95 % 0 in /  0.0 mm
21:32 40.6 °F /  4.8 °C 39.4 °F /  4.1 °C 30 in /  1016.8 hPa WNW 2 mph /  3.2 km/h 3 mph /  4.8 km/h 95 % 0 in /  0.0 mm
21:37 40.6 °F /  4.8 °C 39.4 °F /  4.1 °C 30 in /  1016.8 hPa WNW 1 mph /  1.6 km/h 4 mph /  6.4 km/h 95 % 0 in /  0.0 mm
21:47 40.6 °F /  4.8 °C 39.4 °F /  4.1 °C 30 in /  1016.8 hPa WNW 1 mph /  1.6 km/h 4 mph /  6.4 km/h 95 % 0 in /  0.0 mm
21:52 40.6 °F /  4.8 °C 39.4 °F /  4.1 °C 30 in /  1016.8 hPa WNW 2 mph /  3.2 km/h 4 mph /  6.4 km/h 95 % 0 in /  0.0 mm
21:57 40.6 °F /  4.8 °C 39.4 °F /  4.1 °C 30 in /  1016.5 hPa WNW 1 mph /  1.6 km/h 4 mph /  6.4 km/h 95 % 0 in /  0.0 mm
22:02 40.6 °F /  4.8 °C 39.4 °F /  4.1 °C 30 in /  1016.8 hPa Calm   4 mph /  6.4 km/h 95 % 0 in /  0.0 mm
22:07 40.5 °F /  4.7 °C 39.2 °F /  4.0 °C 30 in /  1016.5 hPa Calm   3 mph /  4.8 km/h 95 % 0 in /  0.0 mm
22:12 40.5 °F /  4.7 °C 39.2 °F /  4.0 °C 30 in /  1016.8 hPa Calm   1 mph /  1.6 km/h 95 % 0 in /  0.0 mm
22:17 40.5 °F /  4.7 °C 39.2 °F /  4.0 °C 30 in /  1016.8 hPa Calm     95 % 0 in /  0.0 mm
22:22 40.5 °F /  4.7 °C 39.2 °F /  4.0 °C 30 in /  1016.8 hPa Calm     95 % 0 in /  0.0 mm
22:32 40.3 °F /  4.6 °C 39 °F /  3.9 °C 30 in /  1017.2 hPa Calm   1 mph /  1.6 km/h 95 % 0 in /  0.0 mm
22:37 40.3 °F /  4.6 °C 39 °F /  3.9 °C 30 in /  1017.2 hPa Calm   1 mph /  1.6 km/h 95 % 0 in /  0.0 mm
22:42 40.3 °F /  4.6 °C 39 °F /  3.9 °C 30 in /  1016.8 hPa Calm   2 mph /  3.2 km/h 95 % 0 in /  0.0 mm
22:47 40.3 °F /  4.6 °C 39 °F /  3.9 °C 30 in /  1017.2 hPa Calm   2 mph /  3.2 km/h 95 % 0 in /  0.0 mm
22:52 39.9 °F /  4.4 °C 38.7 °F /  3.7 °C 30 in /  1017.2 hPa Calm   2 mph /  3.2 km/h 95 % 0 in /  0.0 mm
23:02 39.4 °F /  4.1 °C 38.1 °F /  3.4 °C 30 in /  1017.2 hPa Calm   1 mph /  1.6 km/h 95 % 0 in /  0.0 mm
23:12 39 °F /  3.9 °C 37.8 °F /  3.2 °C 30 in /  1017.2 hPa Calm   2 mph /  3.2 km/h 95 % 0 in /  0.0 mm
23:17 38.7 °F /  3.7 °C 37.6 °F /  3.1 °C 30 in /  1017.2 hPa Calm   2 mph /  3.2 km/h 96 % 0 in /  0.0 mm
23:27 38.5 °F /  3.6 °C 37.4 °F /  3.0 °C 30 in /  1017.2 hPa Calm   2 mph /  3.2 km/h 96 % 0 in /  0.0 mm
23:32 38.5 °F /  3.6 °C 37.8 °F /  3.2 °C 30 in /  1017.2 hPa West 2 mph /  3.2 km/h 3 mph /  4.8 km/h 97 % 0 in /  0.0 mm
23:42 38.8 °F /  3.8 °C 38.1 °F /  3.4 °C 30 in /  1017.2 hPa NW 2 mph /  3.2 km/h 4 mph /  6.4 km/h 97 % 0 in /  0.0 mm
23:47 38.8 °F /  3.8 °C 37.8 °F /  3.2 °C 30 in /  1017.2 hPa Calm   4 mph /  6.4 km/h 96 % 0 in /  0.0 mm
23:52 38.8 °F /  3.8 °C 37.8 °F /  3.2 °C 30.1 in /  1017.5 hPa WNW 1 mph /  1.6 km/h 4 mph /  6.4 km/h 96 % 0 in /  0.0 mm
23:57 38.8 °F /  3.8 °C 37.8 °F /  3.2 °C 30.1 in /  1017.5 hPa WNW 1 mph /  1.6 km/h 3 mph /  4.8 km/h 96 % 0 in /  0.0 mm
Meteo18
Compliments of Weather Underground - 4 mb

Script developed by  Jim McMurry - jmcmurry@mwt.net Adapted for the template by  Wim van der Kuil - Leuven-Template.eu

You find our weather info also at:

European Weather Network

Weather Underground

Equipment we use:

Weather-station
Davis Vue

Weather-program
Meteohub

Weather-server
Raspberry PI 2 B+

Provider
1 and 1

Davis Vue

Meteohub

Raspberry PI 2 B+

1 and 1